Time;durP1;ratioP1;P1;durP2;ratioP2;P2;SDS_P1;SDS_P2;PMS_P1;PMS_P2;Temp;Humidity;BMP_temperature;BMP_pressure;BME280_temperature;BME280_humidity;BME280_pressure;Samples;Min_cycle;Max_cycle;Signal;HPM_P1;HPM_P2
2021/05/10 00:02:23;;;;;;;6.85;3.00;;;;;;;;;;8295674;28;20461;-68
2021/05/10 00:06:28;;;;;;;7.53;2.10;;;;;;;;;;8293054;28;20383;-69
2021/05/10 00:10:32;;;;;;;3.72;2.30;;;;;;;;;;8294114;28;20052;-68
2021/05/10 00:14:41;;;;;;;5.85;2.58;;;;;;;;;;8291133;28;20383;-68
2021/05/10 00:18:46;;;;;;;25.52;11.40;;;;;;;;;;8291971;28;20577;-69
2021/05/10 00:22:51;;;;;;;9.32;4.53;;;;;;;;;;8292111;28;20486;-69
2021/05/10 00:26:56;;;;;;;4.72;2.55;;;;;;;;;;8292057;28;20430;-69
2021/05/10 00:31:01;;;;;;;5.20;2.63;;;;;;;;;;8290213;28;20463;-70
2021/05/10 00:35:04;;;;;;;7.60;2.53;;;;;;;;;;8291217;28;20518;-69
2021/05/10 00:39:09;;;;;;;5.50;2.20;;;;;;;;;;8292946;28;20060;-68
2021/05/10 00:43:13;;;;;;;6.40;1.95;;;;;;;;;;8273518;28;20483;-69
2021/05/10 00:47:17;;;;;;;7.25;2.30;;;;;;;;;;8290718;28;20373;-68
2021/05/10 00:51:22;;;;;;;3.45;2.17;;;;;;;;;;8291291;28;20057;-68
2021/05/10 00:55:27;;;;;;;5.15;2.40;;;;;;;;;;8292301;28;20379;-69
2021/05/10 00:59:32;;;;;;;3.53;2.03;;;;;;;;;;8291077;28;20444;-70
2021/05/10 01:03:37;;;;;;;3.50;1.90;;;;;;;;;;8280391;28;20422;-70
2021/05/10 01:07:42;;;;;;;4.25;2.45;;;;;;;;;;8324993;28;20482;-68
2021/05/10 01:11:47;;;;;;;3.25;1.65;;;;;;;;;;8305336;28;20105;-68
2021/05/10 01:15:52;;;;;;;6.95;2.20;;;;;;;;;;8305835;28;20372;-69
2021/05/10 01:19:56;;;;;;;4.93;2.00;;;;;;;;;;8324521;28;20398;-69
2021/05/10 01:24:03;;;;;;;4.72;2.35;;;;;;;;;;8305761;28;20375;-69
2021/05/10 01:28:07;;;;;;;4.75;2.30;;;;;;;;;;8305533;28;20494;-68
2021/05/10 01:32:11;;;;;;;5.97;2.25;;;;;;;;;;8303954;28;20492;-68
2021/05/10 01:36:16;;;;;;;7.55;2.28;;;;;;;;;;8324267;28;20467;-69
2021/05/10 01:40:21;;;;;;;6.00;2.17;;;;;;;;;;8323265;28;20471;-69
2021/05/10 01:44:25;;;;;;;2.83;2.20;;;;;;;;;;8306487;28;20455;-68
2021/05/10 01:48:29;;;;;;;3.45;2.50;;;;;;;;;;8329807;28;20367;-68
2021/05/10 01:52:33;;;;;;;3.80;1.75;;;;;;;;;;8330622;28;20470;-67
2021/05/10 01:56:38;;;;;;;3.45;1.98;;;;;;;;;;8327472;28;20393;-69
2021/05/10 02:00:45;;;;;;;5.47;2.05;;;;;;;;;;8329150;28;20411;-68
2021/05/10 02:05:13;;;;;;;3.17;2.30;;;;;;;;;;8329348;28;20370;-68
2021/05/10 02:09:24;;;;;;;4.03;2.28;;;;;;;;;;8312416;28;20477;-68
2021/05/10 02:13:28;;;;;;;3.85;1.73;;;;;;;;;;8329024;28;20044;-68
2021/05/10 02:17:32;;;;;;;5.07;2.25;;;;;;;;;;8327555;28;20501;-68
2021/05/10 02:21:38;;;;;;;5.68;2.70;;;;;;;;;;8328845;28;20375;-68
2021/05/10 02:25:45;;;;;;;6.38;2.30;;;;;;;;;;8311018;28;20463;-70
2021/05/10 02:29:50;;;;;;;5.40;2.28;;;;;;;;;;8328343;28;20368;-68
2021/05/10 02:33:54;;;;;;;6.32;2.10;;;;;;;;;;8328418;28;20379;-68
2021/05/10 02:37:59;;;;;;;6.65;1.80;;;;;;;;;;8327612;28;20071;-68
2021/05/10 02:42:03;;;;;;;8.00;2.20;;;;;;;;;;8328314;28;20048;-68
2021/05/10 02:46:08;;;;;;;4.68;2.10;;;;;;;;;;8327314;28;20514;-69
2021/05/10 02:50:18;;;;;;;3.60;1.90;;;;;;;;;;8327082;28;20363;-69
2021/05/10 02:54:22;;;;;;;4.63;2.08;;;;;;;;;;8327541;28;20079;-69
2021/05/10 02:58:27;;;;;;;4.60;2.15;;;;;;;;;;8327829;28;20451;-68
2021/05/10 03:02:31;;;;;;;6.68;2.90;;;;;;;;;;8328215;28;20056;-69
2021/05/10 03:06:36;;;;;;;4.00;1.80;;;;;;;;;;8327830;28;20488;-68
2021/05/10 03:10:41;;;;;;;4.90;2.05;;;;;;;;;;8328309;28;20512;-70
2021/05/10 03:14:45;;;;;;;6.55;2.58;;;;;;;;;;8310057;28;20078;-68
2021/05/10 03:18:49;;;;;;;4.30;2.17;;;;;;;;;;8327880;28;20367;-68
2021/05/10 03:22:54;;;;;;;9.32;2.13;;;;;;;;;;8326821;28;20045;-68
2021/05/10 03:26:58;;;;;;;4.47;2.65;;;;;;;;;;8326301;28;20457;-70
2021/05/10 03:31:03;;;;;;;4.32;2.00;;;;;;;;;;8308674;28;20485;-69
2021/05/10 03:35:08;;;;;;;4.45;1.80;;;;;;;;;;8326266;28;20055;-68
2021/05/10 03:39:12;;;;;;;3.40;2.05;;;;;;;;;;8326079;28;20478;-68
2021/05/10 03:43:16;;;;;;;4.65;2.08;;;;;;;;;;8326751;28;20387;-68
2021/05/10 03:47:32;;;;;;;5.28;1.90;;;;;;;;;;8326291;28;20048;-69
2021/05/10 03:51:37;;;;;;;5.68;2.05;;;;;;;;;;8326687;28;20370;-68
2021/05/10 03:55:41;;;;;;;4.80;1.88;;;;;;;;;;8326726;28;20343;-68
2021/05/10 03:59:44;;;;;;;9.60;2.08;;;;;;;;;;8326462;28;20447;-69
2021/05/10 04:03:54;;;;;;;4.75;2.08;;;;;;;;;;8324475;28;20509;-69
2021/05/10 04:08:05;;;;;;;2.80;1.65;;;;;;;;;;8324561;28;20459;-68
2021/05/10 04:16:33;;;;;;;6.40;1.70;;;;;;;;;;8310085;28;20467;-68
2021/05/10 04:20:38;;;;;;;3.78;1.85;;;;;;;;;;8324916;28;20501;-69
2021/05/10 04:24:42;;;;;;;5.25;1.40;;;;;;;;;;8308264;28;20459;-68
2021/05/10 04:28:47;;;;;;;6.47;2.30;;;;;;;;;;8325924;28;20447;-69
2021/05/10 04:32:52;;;;;;;2.97;1.65;;;;;;;;;;8324774;28;20370;-68
2021/05/10 04:36:56;;;;;;;6.38;1.80;;;;;;;;;;8324285;28;20399;-68
2021/05/10 04:41:00;;;;;;;2.20;1.35;;;;;;;;;;8324283;28;20391;-69
2021/05/10 04:45:05;;;;;;;5.20;1.50;;;;;;;;;;8323722;28;20378;-68
2021/05/10 04:49:09;;;;;;;2.20;1.30;;;;;;;;;;8323993;28;20417;-68
2021/05/10 04:53:14;;;;;;;2.80;1.48;;;;;;;;;;8325091;28;20439;-69
2021/05/10 04:57:18;;;;;;;4.00;1.40;;;;;;;;;;8326323;28;20379;-70
2021/05/10 05:01:23;;;;;;;3.55;1.80;;;;;;;;;;8323612;28;20359;-68
2021/05/10 05:05:29;;;;;;;4.05;1.58;;;;;;;;;;8322307;28;20482;-69
2021/05/10 05:09:33;;;;;;;4.18;1.38;;;;;;;;;;8324134;28;20438;-69
2021/05/10 05:13:37;;;;;;;3.58;1.40;;;;;;;;;;8322645;28;20348;-68
2021/05/10 05:17:41;;;;;;;3.28;1.33;;;;;;;;;;8322578;28;20501;-68
2021/05/10 05:21:46;;;;;;;6.00;1.40;;;;;;;;;;8323928;28;20426;-70
2021/05/10 05:25:59;;;;;;;2.58;1.33;;;;;;;;;;8323853;28;20462;-69
2021/05/10 05:30:06;;;;;;;3.80;1.50;;;;;;;;;;8323284;28;20381;-70
2021/05/10 05:34:11;;;;;;;5.40;1.30;;;;;;;;;;8288596;28;20083;-70
2021/05/10 05:38:15;;;;;;;2.75;1.02;;;;;;;;;;8291734;28;20398;-70
2021/05/10 05:42:20;;;;;;;3.55;1.92;;;;;;;;;;8292383;28;20049;-69
2021/05/10 05:46:26;;;;;;;2.88;1.10;;;;;;;;;;8289778;28;20060;-69
2021/05/10 05:50:32;;;;;;;4.17;1.10;;;;;;;;;;8291387;28;20409;-70
2021/05/10 05:54:37;;;;;;;2.10;0.90;;;;;;;;;;8290311;28;20986;-70
2021/05/10 05:58:43;;;;;;;2.55;1.55;;;;;;;;;;8305319;28;20382;-69
2021/05/10 06:02:47;;;;;;;4.43;0.88;;;;;;;;;;8289248;28;20467;-69
2021/05/10 06:06:52;;;;;;;2.90;1.05;;;;;;;;;;8290031;28;20402;-69
2021/05/10 06:10:56;;;;;;;1.48;1.00;;;;;;;;;;8290161;28;20475;-69
2021/05/10 06:15:07;;;;;;;1.98;0.90;;;;;;;;;;8288818;28;20056;-69
2021/05/10 06:19:11;;;;;;;1.05;0.80;;;;;;;;;;8289756;28;20056;-69
2021/05/10 06:23:16;;;;;;;1.85;0.60;;;;;;;;;;8289131;28;20528;-69
2021/05/10 06:27:21;;;;;;;1.17;0.85;;;;;;;;;;8288897;28;20074;-70
2021/05/10 06:31:25;;;;;;;2.08;0.60;;;;;;;;;;8293008;28;20096;-69
2021/05/10 06:35:28;;;;;;;1.33;0.47;;;;;;;;;;8329108;28;20052;-70
2021/05/10 06:39:32;;;;;;;5.15;0.70;;;;;;;;;;8311471;28;20401;-69
2021/05/10 06:43:36;;;;;;;1.00;0.60;;;;;;;;;;8327095;28;20400;-69
2021/05/10 06:47:42;;;;;;;2.13;0.60;;;;;;;;;;8328985;28;20364;-69
2021/05/10 06:51:46;;;;;;;1.98;0.70;;;;;;;;;;8311363;28;20459;-70
2021/05/10 06:55:54;;;;;;;4.03;0.65;;;;;;;;;;8330059;28;20082;-69
2021/05/10 06:59:59;;;;;;;0.77;0.40;;;;;;;;;;8329162;28;20336;-69
2021/05/10 07:04:03;;;;;;;2.45;0.65;;;;;;;;;;8330432;28;20056;-70
2021/05/10 07:08:13;;;;;;;4.50;0.80;;;;;;;;;;8329388;28;20078;-70
2021/05/10 07:12:17;;;;;;;1.02;0.63;;;;;;;;;;8327185;28;20386;-69
2021/05/10 07:16:20;;;;;;;0.73;0.50;;;;;;;;;;8327656;28;20431;-70
2021/05/10 07:20:25;;;;;;;7.75;0.70;;;;;;;;;;8327439;28;20478;-69
2021/05/10 07:24:29;;;;;;;1.55;0.50;;;;;;;;;;8326924;28;20482;-70
2021/05/10 07:28:33;;;;;;;2.35;1.02;;;;;;;;;;8326736;28;20394;-70
2021/05/10 07:32:37;;;;;;;4.78;0.63;;;;;;;;;;8326402;28;20528;-69
2021/05/10 07:36:42;;;;;;;0.93;0.60;;;;;;;;;;8325939;28;20482;-69
2021/05/10 07:40:47;;;;;;;2.25;0.68;;;;;;;;;;8326807;28;20458;-69
2021/05/10 07:44:51;;;;;;;3.45;0.60;;;;;;;;;;8307019;28;20386;-69
2021/05/10 07:48:56;;;;;;;1.33;0.70;;;;;;;;;;8309696;28;20451;-70
2021/05/10 07:53:00;;;;;;;0.70;0.60;;;;;;;;;;8325217;28;20363;-69
2021/05/10 07:57:07;;;;;;;2.85;0.88;;;;;;;;;;8326684;28;20066;-70
2021/05/10 08:01:10;;;;;;;1.58;1.00;;;;;;;;;;8327516;28;20424;-69
2021/05/10 08:05:15;;;;;;;1.80;0.98;;;;;;;;;;8326552;28;20379;-69
2021/05/10 08:09:21;;;;;;;2.50;0.90;;;;;;;;;;8326718;28;20078;-69
2021/05/10 08:13:25;;;;;;;6.43;1.13;;;;;;;;;;8325479;28;20359;-69
2021/05/10 08:17:29;;;;;;;5.80;0.88;;;;;;;;;;8306761;28;20382;-69
2021/05/10 08:21:34;;;;;;;1.88;0.93;;;;;;;;;;8325388;28;20385;-69
2021/05/10 08:25:39;;;;;;;1.25;0.70;;;;;;;;;;8325234;28;20486;-69
2021/05/10 08:29:44;;;;;;;2.53;0.90;;;;;;;;;;8327929;28;20386;-70
2021/05/10 08:33:50;;;;;;;1.55;0.70;;;;;;;;;;8326828;28;20394;-71
2021/05/10 08:37:54;;;;;;;0.82;0.50;;;;;;;;;;8324603;28;20458;-70
2021/05/10 08:41:58;;;;;;;9.13;0.90;;;;;;;;;;8330096;28;20487;-69
2021/05/10 08:46:06;;;;;;;1.00;0.65;;;;;;;;;;8329211;28;20358;-70
2021/05/10 08:50:12;;;;;;;1.33;0.70;;;;;;;;;;8309560;28;20074;-69
2021/05/10 08:54:26;;;;;;;1.63;0.57;;;;;;;;;;8324101;28;20401;-70
2021/05/10 08:58:43;;;;;;;3.35;0.80;;;;;;;;;;8307994;28;20340;-69
2021/05/10 09:02:48;;;;;;;3.28;0.70;;;;;;;;;;8326229;28;20489;-69
2021/05/10 09:07:14;;;;;;;1.50;0.80;;;;;;;;;;8308659;28;20381;-69
2021/05/10 09:11:20;;;;;;;3.28;0.63;;;;;;;;;;8326862;28;20481;-69
2021/05/10 09:15:37;;;;;;;1.80;0.80;;;;;;;;;;8326305;28;20044;-69
2021/05/10 09:19:49;;;;;;;2.97;0.82;;;;;;;;;;8325148;28;20078;-69
2021/05/10 09:23:53;;;;;;;2.08;0.60;;;;;;;;;;8322056;28;20455;-70
2021/05/10 09:28:20;;;;;;;0.75;0.40;;;;;;;;;;8306143;28;20509;-70
2021/05/10 09:32:31;;;;;;;1.25;0.93;;;;;;;;;;8324025;28;20405;-69
2021/05/10 09:36:40;;;;;;;1.25;0.60;;;;;;;;;;8324495;28;20581;-69
2021/05/10 09:40:49;;;;;;;2.10;0.73;;;;;;;;;;8324260;28;20471;-70
2021/05/10 09:44:53;;;;;;;2.83;0.65;;;;;;;;;;8323956;28;20431;-70
2021/05/10 09:49:01;;;;;;;1.65;0.73;;;;;;;;;;8324998;28;20070;-69
2021/05/10 09:53:07;;;;;;;4.15;1.23;;;;;;;;;;8322959;28;20340;-69
2021/05/10 09:57:12;;;;;;;2.42;0.93;;;;;;;;;;8324456;28;20078;-71
2021/05/10 10:01:17;;;;;;;1.25;0.70;;;;;;;;;;8305799;28;20473;-71
2021/05/10 10:05:22;;;;;;;1.25;0.77;;;;;;;;;;8307444;28;20052;-69
2021/05/10 10:09:27;;;;;;;0.85;0.68;;;;;;;;;;8313619;28;20501;-70
2021/05/10 10:13:31;;;;;;;4.30;0.90;;;;;;;;;;8313945;28;20437;-69
2021/05/10 10:17:35;;;;;;;4.85;0.98;;;;;;;;;;8330986;28;20409;-69
2021/05/10 10:21:42;;;;;;;5.50;0.98;;;;;;;;;;8330048;28;20401;-70
2021/05/10 10:25:47;;;;;;;5.38;0.90;;;;;;;;;;8314303;28;20078;-69
2021/05/10 10:29:55;;;;;;;1.67;0.85;;;;;;;;;;8332090;28;20052;-70
2021/05/10 10:34:07;;;;;;;4.90;0.85;;;;;;;;;;8297583;28;20119;-69
2021/05/10 10:38:13;;;;;;;1.98;0.75;;;;;;;;;;8297062;28;20403;-70
2021/05/10 10:42:30;;;;;;;2.45;0.80;;;;;;;;;;8295830;28;20380;-70
2021/05/10 10:46:49;;;;;;;4.82;0.93;;;;;;;;;;8295589;28;20078;-69
2021/05/10 10:51:00;;;;;;;1.48;0.70;;;;;;;;;;8293980;28;20478;-70
2021/05/10 10:55:19;;;;;;;3.10;0.70;;;;;;;;;;8295726;28;20071;-70
2021/05/10 10:59:35;;;;;;;0.93;0.60;;;;;;;;;;8293944;28;20057;-70
2021/05/10 11:03:40;;;;;;;4.28;0.65;;;;;;;;;;8313264;28;20352;-70
2021/05/10 11:07:57;;;;;;;1.52;0.80;;;;;;;;;;8293459;28;20693;-70
2021/05/10 11:12:02;;;;;;;2.45;0.80;;;;;;;;;;8292465;28;20375;-70
2021/05/10 11:16:08;;;;;;;0.98;0.75;;;;;;;;;;8294030;28;20094;-70
2021/05/10 11:20:14;;;;;;;1.85;0.90;;;;;;;;;;8291150;28;20462;-69
2021/05/10 11:24:29;;;;;;;1.92;0.50;;;;;;;;;;8294573;28;20464;-70
2021/05/10 11:28:33;;;;;;;7.38;0.75;;;;;;;;;;8290987;28;20372;-70
2021/05/10 11:32:52;;;;;;;2.85;0.60;;;;;;;;;;8306108;28;20059;-69
2021/05/10 11:36:58;;;;;;;1.95;0.63;;;;;;;;;;8312267;28;20435;-69
2021/05/10 11:41:03;;;;;;;2.60;0.70;;;;;;;;;;8329410;28;20455;-69
2021/05/10 11:45:08;;;;;;;2.45;0.80;;;;;;;;;;8325758;28;20332;-69
2021/05/10 11:49:35;;;;;;;3.88;0.75;;;;;;;;;;8325507;28;20459;-69
2021/05/10 11:53:40;;;;;;;1.65;0.63;;;;;;;;;;8326882;28;20469;-69
2021/05/10 11:57:45;;;;;;;1.17;0.80;;;;;;;;;;8326611;28;20443;-70
2021/05/10 12:01:49;;;;;;;1.65;0.60;;;;;;;;;;8327615;28;20439;-70
2021/05/10 12:05:54;;;;;;;0.68;0.40;;;;;;;;;;8326442;28;20455;-70
2021/05/10 12:10:11;;;;;;;4.40;0.57;;;;;;;;;;8327047;28;20462;-70
2021/05/10 12:14:17;;;;;;;1.13;0.52;;;;;;;;;;8308187;28;20382;-70
2021/05/10 12:18:21;;;;;;;1.35;0.50;;;;;;;;;;8326766;28;20056;-70
2021/05/10 12:22:42;;;;;;;0.68;0.35;;;;;;;;;;8325311;28;20491;-69
2021/05/10 12:26:48;;;;;;;2.13;0.80;;;;;;;;;;8324895;28;20370;-70
2021/05/10 12:30:55;;;;;;;1.02;0.40;;;;;;;;;;8307650;28;20374;-70
2021/05/10 12:35:00;;;;;;;0.82;0.50;;;;;;;;;;8326743;28;20465;-70
2021/05/10 12:39:13;;;;;;;0.77;0.40;;;;;;;;;;8308648;28;20435;-71
2021/05/10 12:43:20;;;;;;;2.70;0.70;;;;;;;;;;8328674;28;20056;-70
2021/05/10 12:47:48;;;;;;;2.40;0.60;;;;;;;;;;8326535;28;20477;-70
2021/05/10 12:51:54;;;;;;;1.25;0.50;;;;;;;;;;8330142;28;20052;-69
2021/05/10 12:56:12;;;;;;;1.90;0.50;;;;;;;;;;8325428;28;20379;-70
2021/05/10 13:00:38;;;;;;;1.25;0.90;;;;;;;;;;8322746;28;20447;-71
2021/05/10 13:04:46;;;;;;;1.15;0.52;;;;;;;;;;8324459;28;20469;-69
2021/05/10 13:08:52;;;;;;;1.20;0.55;;;;;;;;;;8324375;28;20378;-71
2021/05/10 13:12:56;;;;;;;1.20;0.60;;;;;;;;;;8322853;28;20047;-70
2021/05/10 13:17:18;;;;;;;0.95;0.60;;;;;;;;;;8305241;28;20466;-70
2021/05/10 13:39:09;;;;;;;1.85;0.60;;;;;;;;;;8324866;28;20453;-70
2021/05/10 13:43:20;;;;;;;6.70;0.70;;;;;;;;;;8328158;28;20056;-71
2021/05/10 13:47:25;;;;;;;0.75;0.50;;;;;;;;;;8312907;28;20475;-70
2021/05/10 13:51:29;;;;;;;1.85;0.57;;;;;;;;;;8313331;28;20099;-71
2021/05/10 13:55:34;;;;;;;1.10;0.60;;;;;;;;;;8329103;28;20513;-70
2021/05/10 13:59:38;;;;;;;3.22;0.63;;;;;;;;;;8332892;28;20569;-70
2021/05/10 14:03:46;;;;;;;4.03;0.50;;;;;;;;;;8331451;28;20044;-70
2021/05/10 14:07:50;;;;;;;2.22;0.80;;;;;;;;;;8330078;28;20052;-70
2021/05/10 14:11:54;;;;;;;3.10;0.38;;;;;;;;;;8331294;28;20052;-70
2021/05/10 14:16:00;;;;;;;1.25;0.73;;;;;;;;;;8314799;28;20047;-70
2021/05/10 14:20:06;;;;;;;0.30;0.22;;;;;;;;;;8331695;28;20577;-70
2021/05/10 14:24:11;;;;;;;3.70;0.77;;;;;;;;;;8328555;28;20393;-70
2021/05/10 14:28:16;;;;;;;0.68;0.43;;;;;;;;;;8330095;28;20475;-70
2021/05/10 14:32:20;;;;;;;0.32;0.32;;;;;;;;;;8310550;28;20448;-70
2021/05/10 14:36:25;;;;;;;2.35;0.50;;;;;;;;;;8331714;28;20109;-69
2021/05/10 14:40:28;;;;;;;2.00;0.55;;;;;;;;;;8328325;28;20056;-69
2021/05/10 14:44:38;;;;;;;2.83;0.52;;;;;;;;;;8327743;28;20445;-71
2021/05/10 14:48:42;;;;;;;0.95;0.80;;;;;;;;;;8328554;28;20466;-70
2021/05/10 14:52:47;;;;;;;0.68;0.50;;;;;;;;;;8310714;28;20082;-70
2021/05/10 14:56:51;;;;;;;2.83;0.90;;;;;;;;;;8329226;28;20407;-71
2021/05/10 15:00:55;;;;;;;6.20;0.60;;;;;;;;;;8310730;28;20393;-69
2021/05/10 15:04:58;;;;;;;1.42;0.60;;;;;;;;;;8327541;28;20465;-69
2021/05/10 15:09:03;;;;;;;12.27;0.88;;;;;;;;;;8328192;28;20071;-70
2021/05/10 15:13:07;;;;;;;0.98;0.82;;;;;;;;;;8328020;28;20370;-69
2021/05/10 15:17:11;;;;;;;1.70;0.38;;;;;;;;;;8328039;28;20478;-70
2021/05/10 15:21:16;;;;;;;1.35;0.50;;;;;;;;;;8327041;28;20479;-69
2021/05/10 15:25:21;;;;;;;1.05;0.50;;;;;;;;;;8325400;28;20047;-69
2021/05/10 15:29:27;;;;;;;1.70;0.80;;;;;;;;;;8327513;28;20381;-70
2021/05/10 15:33:31;;;;;;;2.97;1.08;;;;;;;;;;8326337;28;20409;-69
2021/05/10 15:37:36;;;;;;;3.70;0.98;;;;;;;;;;8329227;28;20370;-69
2021/05/10 15:41:40;;;;;;;1.25;0.55;;;;;;;;;;8326394;28;20466;-70
2021/05/10 15:45:46;;;;;;;2.65;0.60;;;;;;;;;;8326753;28;20367;-70
2021/05/10 15:49:54;;;;;;;1.35;0.70;;;;;;;;;;8324905;28;20479;-70
2021/05/10 15:53:58;;;;;;;3.35;0.50;;;;;;;;;;8326659;28;20056;-69
2021/05/10 15:58:02;;;;;;;3.45;0.70;;;;;;;;;;8326972;28;20494;-69
2021/05/10 16:02:07;;;;;;;1.85;0.70;;;;;;;;;;8308072;28;20367;-69
2021/05/10 16:06:11;;;;;;;1.38;0.43;;;;;;;;;;8323738;28;20044;-69
2021/05/10 16:10:16;;;;;;;0.45;0.35;;;;;;;;;;8325986;28;20437;-69
2021/05/10 16:14:27;;;;;;;6.10;1.33;;;;;;;;;;8329085;28;20048;-69
2021/05/10 16:18:32;;;;;;;17.67;1.95;;;;;;;;;;8325219;28;20458;-69
2021/05/10 16:22:39;;;;;;;5.40;0.77;;;;;;;;;;8325410;28;20078;-69
2021/05/10 16:26:43;;;;;;;1.73;1.02;;;;;;;;;;8326647;28;20363;-69
2021/05/10 16:30:48;;;;;;;2.58;0.60;;;;;;;;;;8326251;28;20501;-70
2021/05/10 16:34:52;;;;;;;2.95;0.60;;;;;;;;;;8325568;28;20489;-69
2021/05/10 16:38:57;;;;;;;0.85;0.52;;;;;;;;;;8325787;28;20465;-72
2021/05/10 16:43:02;;;;;;;0.85;0.68;;;;;;;;;;8322527;28;20360;-70
2021/05/10 16:47:06;;;;;;;2.28;0.55;;;;;;;;;;8323927;28;20376;-70
2021/05/10 16:51:11;;;;;;;1.95;0.50;;;;;;;;;;8323084;28;20467;-70
2021/05/10 16:55:16;;;;;;;3.33;0.60;;;;;;;;;;8323553;28;20469;-69
2021/05/10 16:59:21;;;;;;;1.23;0.60;;;;;;;;;;8306270;28;20375;-70
2021/05/10 17:03:26;;;;;;;5.95;0.88;;;;;;;;;;8308161;28;20471;-68
2021/05/10 17:07:30;;;;;;;2.63;0.60;;;;;;;;;;8325506;28;20359;-69
2021/05/10 17:11:35;;;;;;;2.10;0.52;;;;;;;;;;8324267;28;20480;-70
2021/05/10 17:15:39;;;;;;;1.00;0.80;;;;;;;;;;8324163;28;20056;-70
2021/05/10 17:19:48;;;;;;;7.18;0.82;;;;;;;;;;8323349;28;20379;-69
2021/05/10 17:23:52;;;;;;;2.72;0.80;;;;;;;;;;8323114;28;20375;-70
2021/05/10 17:27:56;;;;;;;2.03;0.82;;;;;;;;;;8323446;28;20451;-71
2021/05/10 17:32:00;;;;;;;2.17;0.70;;;;;;;;;;8322971;28;20447;-70
2021/05/10 17:36:06;;;;;;;4.30;1.08;;;;;;;;;;8322163;28;20471;-70
2021/05/10 17:40:11;;;;;;;2.13;0.80;;;;;;;;;;8323740;28;20078;-70
2021/05/10 17:44:15;;;;;;;4.82;1.35;;;;;;;;;;8325738;28;20383;-70
2021/05/10 17:48:20;;;;;;;5.90;1.92;;;;;;;;;;8306078;28;20328;-70
2021/05/10 17:52:24;;;;;;;7.53;1.80;;;;;;;;;;8323691;28;20467;-69
2021/05/10 17:56:29;;;;;;;8.45;2.70;;;;;;;;;;8322518;28;20044;-70
2021/05/10 18:00:46;;;;;;;3.25;1.77;;;;;;;;;;8322605;28;20371;-71
2021/05/10 18:04:50;;;;;;;5.55;1.77;;;;;;;;;;8323259;28;20052;-69
2021/05/10 18:08:55;;;;;;;8.90;2.20;;;;;;;;;;8323255;28;20056;-70
2021/05/10 18:12:59;;;;;;;12.32;2.35;;;;;;;;;;8321869;28;20048;-69
2021/05/10 18:17:03;;;;;;;4.68;2.58;;;;;;;;;;8322621;28;20052;-69
2021/05/10 18:21:08;;;;;;;4.80;2.58;;;;;;;;;;8305132;28;20358;-72
2021/05/10 18:25:13;;;;;;;4.50;2.58;;;;;;;;;;8305372;28;20398;-70
2021/05/10 18:29:16;;;;;;;17.77;2.90;;;;;;;;;;8328974;28;20493;-71
2021/05/10 18:33:20;;;;;;;7.43;3.35;;;;;;;;;;8328741;28;20367;-69
2021/05/10 18:37:38;;;;;;;7.97;2.42;;;;;;;;;;8326986;28;20070;-70
2021/05/10 18:41:41;;;;;;;8.05;3.25;;;;;;;;;;8330289;28;20478;-69
2021/05/10 18:45:52;;;;;;;6.72;3.00;;;;;;;;;;8327188;28;20459;-69
2021/05/10 18:50:02;;;;;;;6.37;2.60;;;;;;;;;;8311484;28;20071;-70
2021/05/10 18:54:06;;;;;;;9.57;2.78;;;;;;;;;;8327712;28;20063;-70
2021/05/10 18:58:13;;;;;;;10.27;3.67;;;;;;;;;;8328657;28;20378;-69
2021/05/10 19:02:18;;;;;;;14.23;3.40;;;;;;;;;;8310576;28;20478;-70
2021/05/10 19:06:23;;;;;;;7.85;2.85;;;;;;;;;;8327664;28;20367;-70
2021/05/10 19:10:28;;;;;;;7.30;3.72;;;;;;;;;;8308387;28;20477;-70
2021/05/10 19:14:34;;;;;;;9.00;3.30;;;;;;;;;;8309911;28;20463;-70
2021/05/10 19:18:39;;;;;;;16.42;3.63;;;;;;;;;;8327418;28;20352;-69
2021/05/10 19:22:45;;;;;;;5.13;2.60;;;;;;;;;;8327027;28;20078;-69
2021/05/10 19:26:51;;;;;;;11.82;2.80;;;;;;;;;;8292801;28;20350;-68
2021/05/10 19:30:55;;;;;;;13.27;3.58;;;;;;;;;;8326310;28;20463;-70
2021/05/10 19:34:59;;;;;;;7.90;3.80;;;;;;;;;;8325146;28;20477;-69
2021/05/10 19:39:04;;;;;;;8.25;3.42;;;;;;;;;;8327530;28;20363;-69
2021/05/10 19:43:08;;;;;;;10.70;4.20;;;;;;;;;;8310316;28;20442;-68
2021/05/10 19:47:16;;;;;;;6.13;3.22;;;;;;;;;;8326211;28;20458;-68
2021/05/10 19:51:42;;;;;;;9.83;4.97;;;;;;;;;;8328202;28;20056;-69
2021/05/10 20:00:34;;;;;;;12.23;5.70;;;;;;;;;;8308841;28;20474;-70
2021/05/10 20:04:43;;;;;;;46.75;19.42;;;;;;;;;;8324272;28;20051;-69
2021/05/10 20:08:49;;;;;;;21.08;5.72;;;;;;;;;;8309430;28;20059;-69
2021/05/10 20:12:53;;;;;;;14.70;4.78;;;;;;;;;;8324721;28;20481;-69
2021/05/10 20:16:58;;;;;;;13.27;6.05;;;;;;;;;;8326665;28;20477;-69
2021/05/10 20:21:03;;;;;;;11.82;4.55;;;;;;;;;;8325151;28;20383;-68
2021/05/10 20:25:08;;;;;;;11.85;6.85;;;;;;;;;;8325392;28;20513;-68
2021/05/10 20:29:12;;;;;;;12.18;4.93;;;;;;;;;;8307578;28;20375;-69
2021/05/10 20:33:16;;;;;;;8.98;4.70;;;;;;;;;;8324450;28;20440;-73
2021/05/10 20:37:32;;;;;;;11.75;5.28;;;;;;;;;;8324699;28;20481;-70
2021/05/10 20:41:58;;;;;;;18.67;6.20;;;;;;;;;;8309589;28;20494;-69
2021/05/10 20:46:03;;;;;;;16.00;6.93;;;;;;;;;;8306899;28;20483;-69
2021/05/10 20:50:08;;;;;;;13.18;5.95;;;;;;;;;;8324070;28;20470;-70
2021/05/10 20:54:13;;;;;;;16.58;7.38;;;;;;;;;;8326332;28;20459;-69
2021/05/10 20:58:17;;;;;;;18.88;7.88;;;;;;;;;;8307136;28;20331;-69
2021/05/10 21:02:21;;;;;;;16.08;7.45;;;;;;;;;;8324159;28;20386;-68
2021/05/10 21:06:26;;;;;;;18.23;8.45;;;;;;;;;;8324305;28;20515;-69
2021/05/10 21:10:31;;;;;;;16.50;7.22;;;;;;;;;;8324017;28;20060;-69
2021/05/10 21:14:35;;;;;;;19.67;7.32;;;;;;;;;;8326876;28;20370;-69
2021/05/10 21:18:40;;;;;;;17.38;6.70;;;;;;;;;;8324436;28;20477;-69
2021/05/10 21:22:45;;;;;;;12.32;6.13;;;;;;;;;;8325174;28;20418;-69
2021/05/10 21:26:50;;;;;;;12.27;5.80;;;;;;;;;;8306871;28;20405;-68
2021/05/10 21:30:55;;;;;;;13.77;6.10;;;;;;;;;;8323433;28;20590;-69
2021/05/10 21:35:00;;;;;;;17.90;6.10;;;;;;;;;;8325288;28;20336;-69
2021/05/10 21:39:06;;;;;;;17.85;6.38;;;;;;;;;;8324983;28;20383;-70
2021/05/10 21:43:20;;;;;;;14.32;7.43;;;;;;;;;;8324084;28;20078;-70
2021/05/10 21:47:26;;;;;;;19.13;6.93;;;;;;;;;;8323552;28;20477;-69
2021/05/10 21:51:33;;;;;;;;;;;;;;;;;;8324230;28;20348;-69
2021/05/10 21:55:40;;;;;;;16.98;6.80;;;;;;;;;;8306883;28;20280;-69
2021/05/10 21:59:46;;;;;;;14.65;5.95;;;;;;;;;;8323425;28;20371;-69
2021/05/10 22:03:52;;;;;;;17.95;5.72;;;;;;;;;;8329541;28;20374;-69
2021/05/10 22:07:57;;;;;;;12.88;5.15;;;;;;;;;;8331236;28;20373;-69
2021/05/10 22:12:01;;;;;;;16.40;5.47;;;;;;;;;;8313299;28;20358;-70
2021/05/10 22:16:08;;;;;;;11.60;5.60;;;;;;;;;;8311875;28;20462;-67
2021/05/10 22:20:18;;;;;;;13.02;5.88;;;;;;;;;;8329728;28;20409;-71
2021/05/10 22:24:26;;;;;;;11.02;5.32;;;;;;;;;;8329188;28;20421;-68
2021/05/10 22:28:36;;;;;;;10.63;5.18;;;;;;;;;;8328241;28;20437;-70
2021/05/10 22:32:40;;;;;;;9.93;4.57;;;;;;;;;;8310420;28;20613;-70
2021/05/10 22:36:55;;;;;;;8.30;4.47;;;;;;;;;;8309691;28;20488;-70
2021/05/10 22:41:05;;;;;;;11.32;5.68;;;;;;;;;;8311477;28;20447;-70
2021/05/10 22:45:16;;;;;;;10.07;4.63;;;;;;;;;;8329028;28;20479;-70
2021/05/10 22:50:06;;;;;;;13.38;5.47;;;;;;;;;;8329037;28;20465;-70
2021/05/10 23:02:56;;;;;;;8.20;4.53;;;;;;;;;;8328020;28;20372;-71
2021/05/10 23:07:13;;;;;;;12.25;4.93;;;;;;;;;;8329692;28;20451;-70
2021/05/10 23:11:39;;;;;;;9.50;5.03;;;;;;;;;;8327928;28;20455;-69
2021/05/10 23:16:03;;;;;;;13.15;5.55;;;;;;;;;;8327369;28;20516;-69
2021/05/10 23:20:09;;;;;;;16.05;5.38;;;;;;;;;;8328332;28;20374;-70
2021/05/10 23:24:14;;;;;;;13.20;5.28;;;;;;;;;;8327847;28;20459;-71
2021/05/10 23:28:18;;;;;;;10.73;4.50;;;;;;;;;;8325979;28;20367;-71
2021/05/10 23:32:23;;;;;;;8.57;5.15;;;;;;;;;;8327980;28;20455;-70
2021/05/10 23:36:27;;;;;;;8.57;4.68;;;;;;;;;;8325968;28;20071;-70
2021/05/10 23:40:32;;;;;;;7.00;3.75;;;;;;;;;;8327805;28;20078;-69
2021/05/10 23:44:37;;;;;;;10.77;4.80;;;;;;;;;;8327193;28;20079;-70
2021/05/10 23:48:41;;;;;;;10.40;4.80;;;;;;;;;;8308422;28;20401;-70
2021/05/10 23:52:45;;;;;;;8.75;4.25;;;;;;;;;;8327630;28;20615;-69
2021/05/10 23:56:50;;;;;;;12.35;5.07;;;;;;;;;;8326955;28;20391;-70
